Time;durP1;ratioP1;P1;durP2;ratioP2;P2;SDS_P1;SDS_P2;PMS_P1;PMS_P2;Temp;Humidity;BMP_temperature;BMP_pressure;BME280_temperature;BME280_humidity;BME280_pressure;Samples;Min_cycle;Max_cycle;Signal;HPM_P1;HPM_P2
2022/07/09 00:00:01;;;;;;;2.03;0.70;;;15.70;99.90;;;;;;4880543;29;20049;-84
2022/07/09 00:02:27;;;;;;;3.40;0.60;;;15.70;99.90;;;;;;4880389;29;20158;-84
2022/07/09 00:04:52;;;;;;;1.75;0.60;;;15.60;99.90;;;;;;4867982;29;20388;-84
2022/07/09 00:07:18;;;;;;;2.33;0.73;;;15.70;99.90;;;;;;4861681;29;20463;-83
2022/07/09 00:09:44;;;;;;;2.88;0.50;;;15.70;99.90;;;;;;4861290;29;20056;-84
2022/07/09 00:12:10;;;;;;;0.90;0.47;;;15.70;99.90;;;;;;4880274;29;20075;-86
2022/07/09 00:14:35;;;;;;;1.75;0.70;;;15.70;99.90;;;;;;4879034;29;20049;-85
2022/07/09 00:17:01;;;;;;;0.95;0.40;;;16.00;99.90;;;;;;4878068;29;20041;-84
2022/07/09 00:19:27;;;;;;;1.20;0.55;;;15.70;99.90;;;;;;4852358;29;20089;-84
2022/07/09 00:21:53;;;;;;;2.67;0.60;;;15.80;99.90;;;;;;4841382;29;20129;-83
2022/07/09 00:24:18;;;;;;;2.55;0.68;;;15.80;99.90;;;;;;4842684;29;20141;-85
2022/07/09 00:26:44;;;;;;;1.15;0.68;;;15.80;99.90;;;;;;4842946;29;20046;-85
2022/07/09 00:29:10;;;;;;;1.02;0.60;;;15.80;99.90;;;;;;4841809;29;20060;-84
2022/07/09 00:31:35;;;;;;;0.80;0.60;;;15.90;99.90;;;;;;4841034;29;20042;-86
2022/07/09 00:34:01;;;;;;;2.28;0.70;;;15.80;99.90;;;;;;4840943;29;20041;-87
2022/07/09 00:36:27;;;;;;;2.38;0.80;;;15.90;99.90;;;;;;4843083;29;20046;-84
2022/07/09 00:38:53;;;;;;;1.25;0.60;;;15.90;99.90;;;;;;4842793;29;20041;-85
2022/07/09 00:41:18;;;;;;;10.45;1.20;;;15.90;99.90;;;;;;4842870;29;20089;-84
2022/07/09 00:43:49;;;;;;;3.22;0.80;;;15.90;99.90;;;;;;4832630;29;20408;-86
2022/07/09 00:46:15;;;;;;;1.15;0.50;;;16.00;99.90;;;;;;4824629;29;20186;-84
2022/07/09 00:48:41;;;;;;;4.07;1.73;;;16.00;99.90;;;;;;4823103;29;20051;-85
2022/07/09 00:51:07;;;;;;;1.38;0.90;;;16.00;99.90;;;;;;4824594;29;20069;-84
2022/07/09 00:53:33;;;;;;;1.58;0.50;;;16.30;99.90;;;;;;4825394;29;20147;-85
2022/07/09 00:56:00;;;;;;;1.05;0.55;;;16.00;99.90;;;;;;4824524;29;20088;-84
2022/07/09 00:58:27;;;;;;;1.13;0.60;;;16.10;99.90;;;;;;4824305;29;20046;-87
2022/07/09 01:00:54;;;;;;;1.55;0.75;;;16.10;99.90;;;;;;4824506;29;20046;-84
2022/07/09 01:03:20;;;;;;;2.15;0.70;;;16.00;99.90;;;;;;4826474;29;20072;-86
2022/07/09 01:05:46;;;;;;;1.05;0.52;;;16.10;99.90;;;;;;4840786;29;20050;-87
2022/07/09 01:08:12;;;;;;;0.82;0.60;;;16.10;99.90;;;;;;4841147;29;20140;-85
2022/07/09 01:10:38;;;;;;;1.48;0.65;;;16.10;99.90;;;;;;4841294;29;20065;-84
2022/07/09 01:13:05;;;;;;;1.95;0.80;;;16.20;99.90;;;;;;4824890;29;20046;-84
2022/07/09 01:15:31;;;;;;;0.98;0.60;;;16.20;99.90;;;;;;4831479;29;20089;-84
2022/07/09 01:17:58;;;;;;;1.58;0.60;;;16.20;99.90;;;;;;4824152;29;20058;-86
2022/07/09 01:20:31;;;;;;;1.02;0.65;;;16.10;99.90;;;;;;4852821;29;20049;-85
2022/07/09 01:22:58;;;;;;;1.00;0.60;;;16.20;99.90;;;;;;4860662;29;20053;-86
2022/07/09 01:25:38;;;;;;;1.73;0.77;;;16.10;99.90;;;;;;4868461;29;20126;-85
2022/07/09 01:28:05;;;;;;;2.20;0.73;;;16.20;99.90;;;;;;4862462;29;20061;-85
2022/07/09 01:30:32;;;;;;;0.80;0.60;;;16.20;99.90;;;;;;4879013;29;20120;-86
2022/07/09 01:32:58;;;;;;;1.20;0.70;;;16.40;99.90;;;;;;4862675;29;20403;-87
2022/07/09 01:35:24;;;;;;;4.88;1.10;;;16.20;99.90;;;;;;4876365;29;20048;-86
2022/07/09 01:37:51;;;;;;;2.10;0.70;;;16.20;99.90;;;;;;4860489;29;20119;-86
2022/07/09 01:40:17;;;;;;;1.77;0.80;;;16.20;99.90;;;;;;4860497;29;20060;-86
2022/07/09 01:42:42;;;;;;;1.70;0.60;;;16.20;99.90;;;;;;4862431;29;20053;-85
2022/07/09 01:45:09;;;;;;;1.02;0.57;;;16.20;99.90;;;;;;4878820;29;20447;-86
2022/07/09 01:47:34;;;;;;;3.53;0.70;;;16.20;99.90;;;;;;4877120;29;20105;-85
2022/07/09 01:50:00;;;;;;;4.28;0.88;;;16.20;99.90;;;;;;4878745;29;20049;-84
2022/07/09 01:52:26;;;;;;;2.58;0.75;;;16.20;99.90;;;;;;4879000;29;20052;-85
2022/07/09 01:54:52;;;;;;;4.05;0.90;;;16.20;99.90;;;;;;4862256;29;20057;-85
2022/07/09 01:57:17;;;;;;;0.88;0.50;;;16.30;99.90;;;;;;4860024;29;20050;-85
2022/07/09 01:59:43;;;;;;;1.70;0.70;;;16.10;99.90;;;;;;4878765;29;20049;-85
2022/07/09 02:02:09;;;;;;;2.92;0.80;;;16.20;99.90;;;;;;4878626;29;20160;-86
2022/07/09 02:04:34;;;;;;;2.95;0.70;;;16.20;99.90;;;;;;4863329;29;20044;-84
2022/07/09 02:07:00;;;;;;;1.05;0.70;;;16.20;99.90;;;;;;4845063;29;20511;-84
2022/07/09 02:09:26;;;;;;;3.35;0.70;;;16.20;99.90;;;;;;4862212;29;20123;-85
2022/07/09 02:11:52;;;;;;;2.53;0.70;;;16.20;99.90;;;;;;4862746;29;20057;-85
2022/07/09 02:14:17;;;;;;;5.30;1.20;;;16.20;99.90;;;;;;4860169;29;20041;-86
2022/07/09 02:16:44;;;;;;;2.13;0.80;;;16.20;99.90;;;;;;4860020;29;20532;-84
2022/07/09 02:19:10;;;;;;;2.75;0.80;;;16.20;99.90;;;;;;4860849;29;20061;-84
2022/07/09 02:21:35;;;;;;;1.77;0.60;;;16.10;99.90;;;;;;4860111;29;20049;-84
2022/07/09 02:24:01;;;;;;;2.63;0.75;;;16.20;99.90;;;;;;4860259;29;20208;-87
2022/07/09 02:26:28;;;;;;;1.98;0.63;;;16.20;99.90;;;;;;4859818;29;20048;-85
2022/07/09 02:28:57;;;;;;;3.60;0.70;;;16.20;99.90;;;;;;4864795;29;20037;-86
2022/07/09 02:31:22;;;;;;;1.67;0.50;;;16.10;99.90;;;;;;4879372;29;20064;-85
2022/07/09 02:33:48;;;;;;;1.83;0.68;;;16.20;99.90;;;;;;4876763;29;20041;-85
2022/07/09 02:36:14;;;;;;;3.50;1.20;;;16.20;99.90;;;;;;4863548;29;20046;-86
2022/07/09 02:38:40;;;;;;;4.07;1.13;;;16.10;99.90;;;;;;4863549;29;20045;-84
2022/07/09 02:41:05;;;;;;;2.33;0.85;;;16.30;99.90;;;;;;4863323;29;20455;-85
2022/07/09 02:43:32;;;;;;;1.63;0.60;;;16.20;99.90;;;;;;4884091;29;20041;-85
2022/07/09 02:45:58;;;;;;;2.80;0.60;;;16.30;99.90;;;;;;4884281;29;20082;-84
2022/07/09 02:48:27;;;;;;;2.83;0.90;;;16.20;99.90;;;;;;4849800;29;20140;-85
2022/07/09 02:50:53;;;;;;;1.23;0.80;;;16.10;99.90;;;;;;4881865;29;20394;-86
2022/07/09 02:53:20;;;;;;;1.92;0.65;;;16.00;99.90;;;;;;4884931;29;20144;-86
2022/07/09 02:55:46;;;;;;;1.08;0.57;;;16.10;99.90;;;;;;4883472;29;20061;-85
2022/07/09 02:58:13;;;;;;;1.83;0.65;;;16.10;99.90;;;;;;4865112;29;20049;-84
2022/07/09 03:00:39;;;;;;;0.93;0.43;;;16.20;99.90;;;;;;4880016;29;20049;-85
2022/07/09 03:03:05;;;;;;;1.13;0.57;;;16.10;99.90;;;;;;4866790;29;20046;-86
2022/07/09 03:05:31;;;;;;;2.78;0.50;;;16.10;99.90;;;;;;4846228;29;20060;-85
2022/07/09 03:07:57;;;;;;;2.67;0.80;;;16.10;99.90;;;;;;4863188;29;20041;-85
2022/07/09 03:10:23;;;;;;;0.90;0.60;;;16.10;99.90;;;;;;4862849;29;20049;-85
2022/07/09 03:12:49;;;;;;;1.67;0.60;;;16.10;99.90;;;;;;4860648;29;20113;-86
2022/07/09 03:15:16;;;;;;;1.73;0.80;;;16.10;99.90;;;;;;4864592;29;20080;-85
2022/07/09 03:17:43;;;;;;;3.00;0.68;;;16.10;99.90;;;;;;4864486;29;20059;-85
2022/07/09 03:20:09;;;;;;;0.98;0.47;;;16.10;99.90;;;;;;4880824;29;20053;-85
2022/07/09 03:22:36;;;;;;;1.02;0.40;;;16.10;99.90;;;;;;4879411;29;20053;-86
2022/07/09 03:25:02;;;;;;;1.10;0.50;;;16.10;99.90;;;;;;4864825;29;20084;-85
2022/07/09 03:27:28;;;;;;;1.35;0.52;;;16.10;99.90;;;;;;4880979;29;20456;-84
2022/07/09 03:29:53;;;;;;;2.90;0.73;;;16.00;99.90;;;;;;4879509;29;20036;-85
2022/07/09 03:32:19;;;;;;;3.40;1.00;;;16.00;99.90;;;;;;4862584;29;20546;-84
2022/07/09 03:34:45;;;;;;;2.45;0.93;;;16.10;99.90;;;;;;4864170;29;20048;-85
2022/07/09 03:37:11;;;;;;;1.77;0.73;;;16.10;99.90;;;;;;4863942;29;20053;-85
2022/07/09 03:39:36;;;;;;;6.43;1.40;;;16.10;99.90;;;;;;4880953;29;20044;-84
2022/07/09 03:42:02;;;;;;;3.05;0.90;;;16.20;99.90;;;;;;4880833;29;20045;-84
2022/07/09 03:44:28;;;;;;;2.08;0.70;;;16.10;99.90;;;;;;4878063;29;20057;-85
2022/07/09 03:46:53;;;;;;;1.95;0.60;;;16.10;99.90;;;;;;4863931;29;20124;-85
2022/07/09 03:49:19;;;;;;;1.33;0.52;;;16.00;99.90;;;;;;4880608;29;20140;-86
2022/07/09 03:51:45;;;;;;;1.15;0.50;;;16.00;99.90;;;;;;4880826;29;20045;-87
2022/07/09 03:54:11;;;;;;;1.27;0.63;;;16.00;99.90;;;;;;4878892;29;20052;-86
2022/07/09 03:56:36;;;;;;;0.85;0.40;;;16.00;99.90;;;;;;4869960;29;20049;-86
2022/07/09 03:59:02;;;;;;;4.38;1.10;;;16.10;99.90;;;;;;4863341;29;20069;-84
2022/07/09 04:01:28;;;;;;;1.98;0.60;;;16.00;99.90;;;;;;4862250;29;20045;-84
2022/07/09 04:03:53;;;;;;;0.60;0.40;;;16.10;99.90;;;;;;4845762;29;20053;-86
2022/07/09 04:06:20;;;;;;;1.95;0.50;;;16.00;99.90;;;;;;4862711;29;20060;-86
2022/07/09 04:08:46;;;;;;;0.95;0.50;;;16.10;99.90;;;;;;4845495;29;20419;-85
2022/07/09 04:11:12;;;;;;;1.67;0.43;;;16.10;99.90;;;;;;4862752;29;20037;-84
2022/07/09 04:13:38;;;;;;;0.60;0.40;;;16.10;99.90;;;;;;4880145;29;20103;-84
2022/07/09 04:16:04;;;;;;;1.13;0.63;;;16.10;99.90;;;;;;4861923;29;20091;-86
2022/07/09 04:18:30;;;;;;;1.05;0.55;;;16.10;99.90;;;;;;4879978;29;20049;-85
2022/07/09 04:20:57;;;;;;;3.63;0.50;;;16.10;99.90;;;;;;4863407;29;20120;-85
2022/07/09 04:23:23;;;;;;;1.63;0.40;;;16.20;99.90;;;;;;4880249;29;20112;-84
2022/07/09 04:25:50;;;;;;;2.03;0.50;;;16.40;99.90;;;;;;4876602;29;20522;-86
2022/07/09 04:28:18;;;;;;;0.98;0.50;;;16.20;99.90;;;;;;4861414;29;20060;-84
2022/07/09 04:30:44;;;;;;;1.98;0.63;;;16.20;99.90;;;;;;4861399;29;20121;-86
2022/07/09 04:33:10;;;;;;;1.95;0.60;;;16.20;99.90;;;;;;4861261;29;20177;-85
2022/07/09 04:35:36;;;;;;;1.45;0.55;;;16.30;99.90;;;;;;4844643;29;20140;-84
2022/07/09 04:38:02;;;;;;;1.08;0.43;;;15.90;99.90;;;;;;4876035;29;20108;-85
2022/07/09 04:40:28;;;;;;;0.90;0.60;;;16.30;99.90;;;;;;4863433;29;20044;-85
2022/07/09 04:42:54;;;;;;;1.88;0.70;;;16.30;99.90;;;;;;4879886;29;20546;-84
2022/07/09 04:45:20;;;;;;;2.17;0.80;;;16.30;99.90;;;;;;4863035;29;20057;-85
2022/07/09 04:47:46;;;;;;;2.90;1.10;;;16.40;99.90;;;;;;4860830;29;20123;-86
2022/07/09 04:50:11;;;;;;;1.08;0.60;;;16.50;99.90;;;;;;4862934;29;20069;-84
2022/07/09 04:52:38;;;;;;;2.00;0.50;;;16.40;99.90;;;;;;4879752;29;20045;-83
2022/07/09 04:55:05;;;;;;;1.00;0.40;;;16.40;99.90;;;;;;4861071;29;20043;-85
2022/07/09 04:57:31;;;;;;;0.90;0.43;;;16.50;99.90;;;;;;4877704;29;20053;-85
2022/07/09 05:00:00;;;;;;;2.50;1.30;;;16.50;99.90;;;;;;4879468;29;20124;-85
2022/07/09 05:02:26;;;;;;;1.92;0.68;;;16.60;99.90;;;;;;4878827;29;20049;-86
2022/07/09 05:04:52;;;;;;;0.93;0.57;;;16.60;99.90;;;;;;4862879;29;20542;-85
2022/07/09 05:07:18;;;;;;;0.98;0.70;;;16.70;99.90;;;;;;4879541;29;20037;-84
2022/07/09 05:09:43;;;;;;;1.05;0.60;;;16.70;99.90;;;;;;4877392;29;20127;-84
2022/07/09 05:12:10;;;;;;;1.98;0.60;;;16.70;99.90;;;;;;4862522;29;20495;-84
2022/07/09 05:14:39;;;;;;;1.10;0.68;;;16.70;99.90;;;;;;4879420;29;20060;-84
2022/07/09 05:17:06;;;;;;;1.25;0.70;;;16.70;99.90;;;;;;4861718;29;20048;-84
2022/07/09 05:19:32;;;;;;;1.10;0.50;;;16.70;99.90;;;;;;4861211;29;20061;-85
2022/07/09 05:21:58;;;;;;;1.40;0.70;;;16.70;99.90;;;;;;4860738;29;20049;-84
2022/07/09 05:24:23;;;;;;;1.15;0.60;;;16.80;99.90;;;;;;4844347;29;20050;-85
2022/07/09 05:26:49;;;;;;;2.38;0.73;;;16.90;99.90;;;;;;4860562;29;20064;-86
2022/07/09 05:29:16;;;;;;;1.30;0.50;;;16.90;99.90;;;;;;4872003;29;20407;-85
2022/07/09 05:31:42;;;;;;;1.58;0.50;;;16.90;99.90;;;;;;4861380;29;20065;-86
2022/07/09 05:34:08;;;;;;;2.92;0.70;;;16.90;99.90;;;;;;4860579;29;20064;-84
2022/07/09 05:36:34;;;;;;;1.85;0.75;;;17.00;99.90;;;;;;4843810;29;20068;-84
2022/07/09 05:39:00;;;;;;;3.20;1.00;;;17.20;99.90;;;;;;4845236;29;20110;-85
2022/07/09 05:41:26;;;;;;;2.35;0.70;;;17.10;99.90;;;;;;4861509;29;20389;-85
2022/07/09 05:43:53;;;;;;;1.35;0.60;;;17.10;99.90;;;;;;4878749;29;20053;-84
2022/07/09 05:46:19;;;;;;;1.95;0.50;;;17.10;99.90;;;;;;4878887;29;20486;-84
2022/07/09 05:48:44;;;;;;;0.60;0.47;;;17.20;99.90;;;;;;4861961;29;20084;-85
2022/07/09 05:51:10;;;;;;;0.88;0.40;;;17.20;99.90;;;;;;4877071;29;20053;-85
2022/07/09 05:53:36;;;;;;;1.33;0.88;;;17.30;99.90;;;;;;4860397;29;20081;-87
2022/07/09 05:56:02;;;;;;;3.70;0.95;;;17.30;99.90;;;;;;4878852;29;20076;-84
2022/07/09 05:58:27;;;;;;;2.35;0.80;;;17.40;99.90;;;;;;4862473;29;20064;-85
2022/07/09 06:00:53;;;;;;;1.77;0.70;;;17.30;99.90;;;;;;4878887;29;20049;-86
2022/07/09 06:03:19;;;;;;;3.38;1.38;;;17.20;99.90;;;;;;4860563;29;20055;-85
2022/07/09 06:05:44;;;;;;;2.78;0.75;;;17.40;99.90;;;;;;4878764;29;20049;-84
2022/07/09 06:08:10;;;;;;;1.02;0.45;;;17.40;99.90;;;;;;4868792;29;20388;-85
2022/07/09 06:10:36;;;;;;;2.25;0.70;;;17.40;99.90;;;;;;4863719;29;20088;-84
2022/07/09 06:13:02;;;;;;;0.93;0.60;;;17.40;99.90;;;;;;4872765;29;20459;-85
2022/07/09 06:15:27;;;;;;;1.52;0.73;;;17.50;99.90;;;;;;4887164;29;20068;-84
2022/07/09 06:17:54;;;;;;;2.53;0.70;;;17.60;99.90;;;;;;4876421;29;20045;-85
2022/07/09 06:20:22;;;;;;;1.63;0.70;;;17.70;99.90;;;;;;4865003;29;20410;-89
2022/07/09 06:22:48;;;;;;;1.52;0.60;;;17.70;99.90;;;;;;4867743;29;20508;-85
2022/07/09 06:25:14;;;;;;;3.35;1.10;;;17.70;99.90;;;;;;4866370;29;20050;-84
2022/07/09 06:27:40;;;;;;;3.08;0.70;;;17.80;99.90;;;;;;4871421;29;20448;-83
2022/07/09 06:30:06;;;;;;;2.40;0.85;;;17.80;99.90;;;;;;4865793;29;20393;-84
2022/07/09 06:32:32;;;;;;;2.63;0.50;;;17.80;99.90;;;;;;4873859;29;20049;-84
2022/07/09 06:34:58;;;;;;;0.80;0.50;;;17.80;99.90;;;;;;4883314;29;20051;-83
2022/07/09 06:37:24;;;;;;;5.82;1.10;;;17.90;99.90;;;;;;4881956;29;20128;-83
2022/07/09 06:39:50;;;;;;;1.45;0.60;;;18.00;99.90;;;;;;4881768;29;20049;-83
2022/07/09 06:42:17;;;;;;;1.67;0.75;;;18.00;99.90;;;;;;4865336;29;20045;-82
2022/07/09 06:44:43;;;;;;;3.72;0.90;;;18.10;99.90;;;;;;4881659;29;20052;-83
2022/07/09 06:47:10;;;;;;;2.13;0.95;;;18.10;99.90;;;;;;4881365;29;20526;-83
2022/07/09 06:49:36;;;;;;;3.78;0.85;;;18.00;99.90;;;;;;4866252;29;20057;-82
2022/07/09 06:52:03;;;;;;;4.07;0.70;;;18.00;99.90;;;;;;4863061;29;20113;-84
2022/07/09 06:54:29;;;;;;;4.55;1.40;;;18.10;99.90;;;;;;4847766;29;20096;-83
2022/07/09 06:56:56;;;;;;;4.43;0.70;;;18.10;99.90;;;;;;4863086;29;20056;-84
2022/07/09 06:59:23;;;;;;;2.65;0.70;;;18.20;99.90;;;;;;4863092;29;20060;-84
2022/07/09 07:01:49;;;;;;;4.57;0.70;;;18.20;99.90;;;;;;4849308;29;20053;-84
2022/07/09 07:04:14;;;;;;;2.08;0.70;;;18.30;99.90;;;;;;4869269;29;20459;-84
2022/07/09 07:06:45;;;;;;;2.05;0.43;;;18.30;99.90;;;;;;4862779;29;20193;-85
2022/07/09 07:09:12;;;;;;;1.05;0.50;;;18.30;99.90;;;;;;4846144;29;20054;-85
2022/07/09 07:11:37;;;;;;;4.75;0.68;;;18.30;99.90;;;;;;4846574;29;20061;-84
2022/07/09 07:14:03;;;;;;;4.65;0.70;;;18.40;99.90;;;;;;4862855;29;20049;-84
2022/07/09 07:16:29;;;;;;;2.85;0.57;;;18.50;99.90;;;;;;4846251;29;20132;-84
2022/07/09 07:18:54;;;;;;;2.40;0.70;;;18.60;99.90;;;;;;4844575;29;20149;-84
2022/07/09 07:21:20;;;;;;;4.03;0.90;;;18.60;99.90;;;;;;4862562;29;20058;-83
2022/07/09 07:23:46;;;;;;;2.30;0.60;;;18.70;99.90;;;;;;4846040;29;20046;-84
2022/07/09 07:26:11;;;;;;;2.35;0.60;;;18.80;99.90;;;;;;4863040;29;20096;-84
2022/07/09 07:28:37;;;;;;;1.48;0.55;;;18.80;99.90;;;;;;4865742;29;20093;-84
2022/07/09 07:31:03;;;;;;;1.80;0.50;;;18.80;99.90;;;;;;4846829;29;20049;-84
2022/07/09 07:33:29;;;;;;;4.60;0.70;;;18.80;99.90;;;;;;4846016;29;20153;-84
2022/07/09 07:35:54;;;;;;;2.08;0.63;;;18.90;99.90;;;;;;4862431;29;20053;-83
2022/07/09 07:38:20;;;;;;;5.68;0.68;;;18.90;99.90;;;;;;4873920;29;20084;-83
2022/07/09 07:40:46;;;;;;;1.75;0.40;;;18.90;99.90;;;;;;4862614;29;20052;-83
2022/07/09 07:43:12;;;;;;;4.30;0.77;;;19.20;99.90;;;;;;4862422;29;20046;-82
2022/07/09 07:45:38;;;;;;;2.45;0.80;;;19.20;99.90;;;;;;4862286;29;20068;-84
2022/07/09 07:48:04;;;;;;;2.72;0.68;;;19.30;99.90;;;;;;4862304;29;20049;-83
2022/07/09 07:50:30;;;;;;;4.25;0.70;;;19.50;99.90;;;;;;4862528;29;20045;-86
2022/07/09 07:52:56;;;;;;;1.65;0.40;;;19.60;99.90;;;;;;4845589;29;20136;-82
2022/07/09 07:55:22;;;;;;;3.45;0.57;;;19.60;99.90;;;;;;4867587;29;20128;-83
2022/07/09 07:57:48;;;;;;;1.55;0.65;;;19.60;99.90;;;;;;4871850;29;20053;-83
2022/07/09 08:00:14;;;;;;;2.15;0.50;;;19.60;99.90;;;;;;4862119;29;20049;-82
2022/07/09 08:02:39;;;;;;;2.45;0.43;;;19.60;99.90;;;;;;4845909;29;20129;-82
2022/07/09 08:05:06;;;;;;;1.35;0.43;;;19.70;99.90;;;;;;4861987;29;20060;-85
2022/07/09 08:07:32;;;;;;;3.90;0.40;;;19.70;99.90;;;;;;4861992;29;20066;-85
2022/07/09 08:09:58;;;;;;;5.45;0.88;;;19.60;99.90;;;;;;4862365;29;20041;-86
2022/07/09 08:12:23;;;;;;;2.20;0.60;;;19.60;99.90;;;;;;4862161;29;20057;-88
2022/07/09 08:14:49;;;;;;;3.42;0.63;;;19.70;99.90;;;;;;4845980;29;20050;-89
2022/07/09 08:17:15;;;;;;;3.13;0.68;;;19.60;99.90;;;;;;4861977;29;20053;-84
2022/07/09 08:19:41;;;;;;;3.15;0.65;;;19.70;99.90;;;;;;4845149;29;20145;-87
2022/07/09 08:22:07;;;;;;;5.63;1.15;;;19.70;99.90;;;;;;4845614;29;20383;-86
2022/07/09 08:24:36;;;;;;;4.13;0.63;;;19.90;99.90;;;;;;4875398;29;20179;-85
2022/07/09 08:27:01;;;;;;;2.20;0.43;;;20.10;99.90;;;;;;4847640;29;20081;-83
2022/07/09 08:29:27;;;;;;;4.80;0.90;;;20.10;99.90;;;;;;4862779;29;20048;-84
2022/07/09 08:31:53;;;;;;;1.05;0.47;;;20.10;99.90;;;;;;4846730;29;20127;-84
2022/07/09 08:34:18;;;;;;;4.07;0.60;;;20.00;99.90;;;;;;4844489;29;20456;-84
2022/07/09 08:36:44;;;;;;;2.88;0.40;;;20.10;99.90;;;;;;4844866;29;20057;-87
2022/07/09 08:39:10;;;;;;;2.35;0.57;;;20.00;99.90;;;;;;4844806;29;20604;-85
2022/07/09 08:41:36;;;;;;;6.63;0.70;;;20.20;99.90;;;;;;4845042;29;20061;-83
2022/07/09 08:44:05;;;;;;;6.45;0.80;;;20.30;99.90;;;;;;4861242;29;20128;-87
2022/07/09 08:46:34;;;;;;;3.45;0.70;;;20.50;99.90;;;;;;4861222;29;20045;-84
2022/07/09 08:49:02;;;;;;;2.92;0.57;;;20.60;99.90;;;;;;4844430;29;20372;-91
2022/07/09 08:51:30;;;;;;;3.45;0.65;;;20.70;99.90;;;;;;4861436;29;20059;-85
2022/07/09 08:53:56;;;;;;;1.15;0.68;;;20.80;99.90;;;;;;4882672;29;20044;-87
2022/07/09 08:56:22;;;;;;;4.50;0.82;;;21.00;99.90;;;;;;4898719;29;20131;-88
2022/07/09 08:58:48;;;;;;;2.72;0.50;;;21.00;99.90;;;;;;4885846;29;20491;-89
2022/07/09 09:01:15;;;;;;;5.38;0.55;;;21.00;99.90;;;;;;4876582;29;20053;-86
2022/07/09 09:03:45;;;;;;;2.80;0.60;;;21.00;99.90;;;;;;4879781;29;20406;-89
2022/07/09 09:06:13;;;;;;;5.22;0.63;;;21.10;99.90;;;;;;4882108;29;20116;-87
2022/07/09 09:08:43;;;;;;;2.72;0.50;;;21.00;99.90;;;;;;4867628;29;20053;-92
2022/07/09 09:11:23;;;;;;;3.95;0.70;;;21.00;99.90;;;;;;4884194;29;20056;-87
2022/07/09 09:13:50;;;;;;;4.43;1.23;;;20.90;99.90;;;;;;4860614;29;20052;-88
2022/07/09 09:16:18;;;;;;;2.47;0.55;;;20.90;99.90;;;;;;4851501;29;20089;-88
2022/07/09 09:18:49;;;;;;;4.25;0.77;;;20.90;99.90;;;;;;4829295;29;20049;-88
2022/07/09 09:21:43;;;;;;;;;;;;;;;;;;;;;
2022/07/09 09:36:46;;;;;;;5.13;0.60;;;21.10;99.90;;;;;;4840723;29;20140;-88
2022/07/09 09:39:25;;;;;;;1.70;0.63;;;21.40;99.90;;;;;;4827142;29;20132;-87
2022/07/09 09:41:59;;;;;;;2.25;0.80;;;21.30;99.90;;;;;;4816295;29;20050;-87
2022/07/09 09:44:29;;;;;;;5.32;0.50;;;21.20;99.90;;;;;;4808128;29;20442;-87
2022/07/09 09:47:03;;;;;;;2.53;0.77;;;21.20;99.90;;;;;;4818242;29;20049;-87
2022/07/09 09:49:29;;;;;;;1.30;0.65;;;21.10;99.90;;;;;;4842139;29;20037;-89
2022/07/09 09:52:10;;;;;;;2.80;0.50;;;21.10;99.90;;;;;;4813199;29;20518;-87
2022/07/09 09:54:42;;;;;;;2.88;0.50;;;21.20;99.90;;;;;;4826775;29;20077;-87
2022/07/09 09:57:16;;;;;;;6.82;0.98;;;21.30;99.90;;;;;;4827865;29;20081;-88
2022/07/09 09:59:46;;;;;;;1.95;0.88;;;21.40;99.90;;;;;;4828504;29;20511;-86
2022/07/09 10:02:13;;;;;;;6.35;0.63;;;21.30;99.90;;;;;;4842521;29;20141;-87
2022/07/09 10:04:43;;;;;;;2.35;0.35;;;21.10;99.90;;;;;;4826022;29;20056;-86
2022/07/09 10:07:29;;;;;;;3.17;0.35;;;21.10;99.90;;;;;;4842466;29;20089;-88
2022/07/09 10:09:57;;;;;;;4.75;0.88;;;20.70;99.90;;;;;;4825646;29;20495;-86
2022/07/09 10:12:30;;;;;;;7.20;0.50;;;20.60;99.90;;;;;;4842138;29;20054;-88
2022/07/09 10:19:14;;;;;;;4.93;0.65;;;20.40;99.90;;;;;;4785832;30;20513;-89
2022/07/09 10:21:59;;;;;;;6.75;0.70;;;20.40;99.90;;;;;;4767336;30;20051;-86
2022/07/09 10:24:39;;;;;;;2.25;0.40;;;20.20;99.90;;;;;;4741017;30;20056;-86
2022/07/09 10:27:06;;;;;;;1.63;0.38;;;20.20;99.90;;;;;;4749881;30;20502;-86
2022/07/09 10:29:35;;;;;;;3.75;0.50;;;20.20;99.90;;;;;;4735605;30;20094;-85
2022/07/09 10:32:08;;;;;;;3.10;0.60;;;20.20;99.90;;;;;;4735326;30;20056;-86
2022/07/09 10:34:51;;;;;;;2.65;0.38;;;20.30;99.90;;;;;;4739937;30;20067;-86
2022/07/09 10:37:17;;;;;;;3.55;0.52;;;20.40;99.90;;;;;;4752724;30;20065;-86
2022/07/09 10:39:53;;;;;;;5.90;0.70;;;20.40;99.90;;;;;;4767896;30;20067;-86
2022/07/09 10:42:23;;;;;;;3.00;0.50;;;20.10;99.90;;;;;;4753371;30;20139;-86
2022/07/09 10:44:53;;;;;;;2.40;0.55;;;20.30;99.90;;;;;;4767037;30;20496;-86
2022/07/09 10:47:23;;;;;;;2.35;0.30;;;20.30;99.90;;;;;;4779055;29;20126;-87
2022/07/09 10:49:49;;;;;;;1.83;0.25;;;20.80;99.90;;;;;;4758814;30;20533;-86
2022/07/09 10:52:15;;;;;;;1.10;0.40;;;20.70;99.90;;;;;;4768745;30;20051;-85
2022/07/09 10:54:48;;;;;;;2.35;0.50;;;20.90;99.90;;;;;;4770130;29;20070;-86
2022/07/09 10:57:14;;;;;;;3.80;0.90;;;20.90;99.90;;;;;;4815715;29;20049;-85
2022/07/09 10:59:46;;;;;;;2.83;0.40;;;20.90;99.90;;;;;;4831885;29;20049;-87
2022/07/09 11:02:35;;;;;;;1.13;0.35;;;20.80;99.90;;;;;;4846758;29;20102;-86
2022/07/09 11:05:34;;;;;;;2.70;0.40;;;20.80;99.90;;;;;;4846718;29;20136;-87
2022/07/09 11:08:19;;;;;;;3.50;0.50;;;20.80;99.90;;;;;;4788119;29;20063;-89
2022/07/09 11:10:51;;;;;;;2.50;0.20;;;21.00;99.90;;;;;;4788265;29;20062;-90
2022/07/09 11:13:57;;;;;;;3.80;0.40;;;21.40;99.90;;;;;;4787181;29;20142;-88
2022/07/09 11:16:31;;;;;;;4.53;0.28;;;21.10;99.90;;;;;;4771531;30;20055;-88
2022/07/09 11:18:59;;;;;;;3.13;0.20;;;21.10;99.90;;;;;;4702507;30;20072;-89
2022/07/09 11:22:24;;;;;;;0.57;0.20;;;21.10;99.90;;;;;;4702624;30;20538;-89
2022/07/09 11:25:10;;;;;;;1.30;0.30;;;21.10;99.90;;;;;;4684687;30;20093;-88
2022/07/09 11:27:42;;;;;;;2.22;0.38;;;21.30;99.90;;;;;;4697799;30;20500;-88
2022/07/09 11:30:42;;;;;;;2.08;0.28;;;21.20;99.90;;;;;;4699656;30;20136;-87
2022/07/09 11:47:38;;;;;;;4.28;0.70;;;21.30;99.90;;;;;;4823209;29;20146;-86
2022/07/09 11:50:20;;;;;;;2.42;0.40;;;21.40;99.90;;;;;;4812040;29;20114;-85
2022/07/09 11:52:50;;;;;;;1.67;0.30;;;21.50;99.90;;;;;;4826436;29;20094;-85
2022/07/09 11:55:35;;;;;;;2.63;0.30;;;21.30;99.90;;;;;;4795274;29;20133;-86
2022/07/09 11:58:10;;;;;;;2.00;0.40;;;21.40;99.90;;;;;;4827036;29;20398;-86
2022/07/09 12:00:41;;;;;;;1.25;0.28;;;21.70;99.90;;;;;;4815851;29;20053;-86
2022/07/09 12:03:06;;;;;;;3.60;0.30;;;21.60;99.90;;;;;;4813695;29;20114;-85
2022/07/09 12:05:35;;;;;;;2.70;0.30;;;21.50;99.90;;;;;;4843703;29;20407;-86
2022/07/09 12:08:07;;;;;;;1.27;0.25;;;21.60;99.90;;;;;;4798865;29;20050;-86
2022/07/09 12:10:35;;;;;;;4.60;0.35;;;21.60;99.90;;;;;;4810394;29;20095;-85
2022/07/09 12:13:02;;;;;;;2.35;0.30;;;21.80;99.90;;;;;;4818519;23;20087;-86
2022/07/09 12:15:38;;;;;;;2.13;0.28;;;21.90;99.90;;;;;;4838517;29;20198;-88
2022/07/09 12:18:48;;;;;;;2.72;0.45;;;22.00;99.90;;;;;;5102004;24;20104;-89
2022/07/09 12:21:13;;;;;;;3.85;0.70;;;22.30;99.90;;;;;;4845248;23;20415;-90
2022/07/09 12:23:42;;;;;;;3.78;0.40;;;22.40;99.90;;;;;;4845175;29;20072;-89
2022/07/09 12:33:29;;;;;;;4.00;0.52;;;22.40;98.90;;;;;;4844385;29;20070;-88
2022/07/09 12:36:08;;;;;;;3.70;0.20;;;22.20;99.70;;;;;;4828882;29;20054;-89
2022/07/09 12:38:34;;;;;;;2.78;0.40;;;22.10;99.90;;;;;;4827336;29;20049;-87
2022/07/09 12:41:03;;;;;;;2.97;0.25;;;22.10;99.90;;;;;;4843523;29;20060;-86
2022/07/09 12:43:29;;;;;;;2.17;0.20;;;22.00;99.90;;;;;;4827034;29;20491;-86
2022/07/09 12:45:58;;;;;;;4.47;0.30;;;22.10;99.60;;;;;;4830690;29;20104;-89
2022/07/09 12:48:26;;;;;;;3.38;0.30;;;22.30;99.00;;;;;;4864516;29;20064;-89
2022/07/09 12:51:05;;;;;;;1.90;0.20;;;22.40;98.50;;;;;;4851003;24;20069;-89
2022/07/09 12:53:36;;;;;;;3.42;0.40;;;22.10;99.10;;;;;;4801827;29;20449;-88
2022/07/09 12:56:02;;;;;;;2.08;0.30;;;22.40;98.20;;;;;;4824211;29;20065;-87
2022/07/09 12:58:30;;;;;;;1.55;0.20;;;22.20;98.60;;;;;;4825952;29;20043;-87
2022/07/09 13:00:55;;;;;;;2.85;0.30;;;22.00;99.90;;;;;;4823645;29;20114;-87
2022/07/09 13:03:29;;;;;;;1.63;0.20;;;22.10;99.30;;;;;;4824434;29;20042;-89
2022/07/09 13:06:04;;;;;;;1.85;0.30;;;22.00;99.30;;;;;;4823473;29;20050;-89
2022/07/09 13:08:30;;;;;;;1.55;0.20;;;22.10;99.90;;;;;;4825488;29;20071;-87
2022/07/09 13:10:55;;;;;;;2.50;0.20;;;21.90;99.50;;;;;;4845004;29;20556;-88
2022/07/09 13:13:21;;;;;;;2.00;0.40;;;22.10;98.50;;;;;;4844594;29;20106;-86
2022/07/09 13:15:51;;;;;;;4.90;0.20;;;22.00;99.30;;;;;;4850099;29;20045;-88
2022/07/09 13:18:27;;;;;;;4.40;0.43;;;22.10;99.90;;;;;;4872951;29;20053;-87
2022/07/09 13:20:55;;;;;;;2.05;0.40;;;22.30;97.90;;;;;;4848053;29;20058;-87
2022/07/09 13:23:21;;;;;;;4.18;0.30;;;22.40;97.80;;;;;;4828263;29;20046;-86
2022/07/09 13:25:49;;;;;;;1.58;0.30;;;21.80;98.70;;;;;;4837738;29;20061;-87
2022/07/09 13:28:17;;;;;;;1.50;0.32;;;21.80;98.80;;;;;;4840181;29;20079;-86
2022/07/09 13:30:53;;;;;;;2.38;0.30;;;21.60;99.90;;;;;;4828556;29;20046;-86